createdAt,value
2022-11-03T00:01:43.856Z,14.06
2022-11-03T00:04:12.456Z,14.07
2022-11-03T00:06:40.694Z,14.08
2022-11-03T00:09:09.035Z,14.05
2022-11-03T00:11:37.202Z,14.05
2022-11-03T00:14:04.438Z,14.07
2022-11-03T00:16:32.002Z,14.08
2022-11-03T00:18:59.128Z,14.10
2022-11-03T00:21:26.616Z,14.07
2022-11-03T00:23:53.973Z,14.07
2022-11-03T00:26:22.462Z,14.03
2022-11-03T00:28:50.496Z,13.98
2022-11-03T00:31:17.625Z,13.94
2022-11-03T00:33:45.026Z,13.98
2022-11-03T00:36:13.781Z,14.01
2022-11-03T00:38:41.009Z,13.98
2022-11-03T00:41:08.156Z,13.98
2022-11-03T00:43:35.394Z,13.97
2022-11-03T00:46:03.091Z,13.94
2022-11-03T00:48:30.234Z,13.95
2022-11-03T00:51:01.444Z,13.96
2022-11-03T00:53:29.026Z,13.96
2022-11-03T00:55:56.194Z,14.01
2022-11-03T00:58:23.343Z,13.99
2022-11-03T01:00:50.479Z,13.98
2022-11-03T01:03:18.327Z,13.98
2022-11-03T01:06:04.475Z,13.97
2022-11-03T01:08:32.443Z,14.00
2022-11-03T01:11:27.867Z,13.97
2022-11-03T01:13:56.530Z,13.89
2022-11-03T01:16:23.881Z,13.84
2022-11-03T01:18:51.489Z,13.85
2022-11-03T01:21:19.259Z,13.84
2022-11-03T01:23:46.450Z,13.87
2022-11-03T01:26:13.844Z,13.91
2022-11-03T01:28:42.348Z,13.93
2022-11-03T01:31:17.707Z,13.92
2022-11-03T01:33:48.145Z,13.89
2022-11-03T01:36:15.480Z,13.88
2022-11-03T01:38:43.015Z,13.91
2022-11-03T01:41:12.801Z,13.95
2022-11-03T01:43:40.433Z,13.96
2022-11-03T01:46:18.144Z,13.88
2022-11-03T01:49:05.746Z,13.87
2022-11-03T01:51:33.606Z,13.79
2022-11-03T01:54:03.909Z,13.81
2022-11-03T01:56:33.162Z,13.85
2022-11-03T01:59:00.606Z,13.85
2022-11-03T02:01:28.297Z,13.85
2022-11-03T02:03:58.524Z,13.84
2022-11-03T02:06:27.216Z,13.86
2022-11-03T02:09:02.962Z,13.88
2022-11-03T02:11:50.975Z,13.90
2022-11-03T02:14:18.145Z,13.90
2022-11-03T02:16:53.715Z,13.89
2022-11-03T02:19:26.933Z,13.91
2022-11-03T02:22:06.400Z,13.90
2022-11-03T02:24:36.517Z,13.89
2022-11-03T02:27:03.714Z,13.84
2022-11-03T02:29:31.049Z,13.74
2022-11-03T02:32:12.048Z,13.73
2022-11-03T02:34:59.582Z,13.68
2022-11-03T02:37:29.652Z,13.60
2022-11-03T02:40:03.409Z,13.54
2022-11-03T02:42:31.601Z,13.59
2022-11-03T02:45:01.464Z,13.56
2022-11-03T02:47:30.274Z,13.45
2022-11-03T02:49:57.355Z,13.43
2022-11-03T02:52:34.358Z,13.43
2022-11-03T02:55:24.862Z,13.44
2022-11-03T02:58:03.805Z,13.40
2022-11-03T03:00:36.499Z,13.38
2022-11-03T03:03:07.300Z,13.32
2022-11-03T03:06:00.403Z,13.29
2022-11-03T03:08:29.841Z,13.38
2022-11-03T03:11:00.454Z,13.42
2022-11-03T03:13:28.164Z,13.45
2022-11-03T03:16:02.109Z,13.33
2022-11-03T03:18:32.330Z,13.27
2022-11-03T03:21:10.778Z,13.24
2022-11-03T03:23:40.989Z,13.32
2022-11-03T03:26:10.343Z,13.35
2022-11-03T03:28:43.918Z,13.34
2022-11-03T03:31:14.049Z,13.35
2022-11-03T03:33:46.506Z,13.37
2022-11-03T03:36:17.363Z,13.35
2022-11-03T03:38:46.286Z,13.30
2022-11-03T03:41:22.024Z,13.34
2022-11-03T03:43:51.199Z,13.36
2022-11-03T03:46:20.478Z,13.38
2022-11-03T03:48:48.109Z,13.32
2022-11-03T03:51:16.996Z,13.34
2022-11-03T03:53:44.054Z,13.28
2022-11-03T03:56:11.249Z,13.28
2022-11-03T03:58:38.403Z,13.20
2022-11-03T04:01:05.544Z,13.17
2022-11-03T04:03:32.924Z,13.11
2022-11-03T04:06:00.336Z,13.15
2022-11-03T04:08:27.525Z,13.16
2022-11-03T04:11:13.440Z,13.16
2022-11-03T04:13:59.459Z,13.13
2022-11-03T04:16:45.380Z,13.13
2022-11-03T04:19:31.338Z,13.10
2022-11-03T04:22:16.765Z,13.07
2022-11-03T04:24:44.755Z,13.04
2022-11-03T04:27:27.229Z,13.02
2022-11-03T04:30:03.339Z,13.05
2022-11-03T04:32:30.802Z,13.05
2022-11-03T04:34:59.083Z,12.97
2022-11-03T04:37:29.548Z,12.99
2022-11-03T04:40:03.915Z,13.01
2022-11-03T04:42:33.396Z,12.94
2022-11-03T04:45:01.656Z,12.99
2022-11-03T04:47:30.300Z,12.99
2022-11-03T04:49:58.677Z,13.01
2022-11-03T04:52:25.865Z,13.01
2022-11-03T04:54:53.566Z,13.02
2022-11-03T04:57:20.684Z,12.98
2022-11-03T04:59:50.619Z,12.90
2022-11-03T05:02:19.357Z,12.91
2022-11-03T05:04:46.759Z,12.90
2022-11-03T05:07:23.272Z,12.89
2022-11-03T05:09:50.756Z,12.89
2022-11-03T05:12:18.608Z,12.81
2022-11-03T05:14:45.756Z,12.80
2022-11-03T05:17:21.231Z,12.85
2022-11-03T05:19:49.099Z,12.85
2022-11-03T05:22:18.541Z,12.85
2022-11-03T05:24:45.646Z,12.74
2022-11-03T05:27:16.680Z,12.78
2022-11-03T05:29:44.490Z,12.77
2022-11-03T05:32:14.394Z,12.79
2022-11-03T05:34:42.698Z,12.72
2022-11-03T05:37:26.936Z,12.74
2022-11-03T05:40:01.810Z,12.79
2022-11-03T05:42:36.550Z,12.74
2022-11-03T05:45:20.695Z,12.80
2022-11-03T05:47:48.791Z,12.83
2022-11-03T05:50:18.815Z,12.88
2022-11-03T05:52:48.283Z,12.79
2022-11-03T05:55:26.856Z,12.73
2022-11-03T05:57:55.471Z,12.74
2022-11-03T06:00:33.111Z,12.76
2022-11-03T06:03:00.890Z,12.83
2022-11-03T06:05:28.608Z,12.84
2022-11-03T06:07:57.427Z,12.86
2022-11-03T06:10:26.399Z,12.88
2022-11-03T06:12:56.106Z,12.88
2022-11-03T06:15:33.985Z,12.89
2022-11-03T06:18:03.044Z,12.93
2022-11-03T06:20:30.267Z,12.95
2022-11-03T06:22:57.467Z,12.98
2022-11-03T06:25:36.257Z,12.98
2022-11-03T06:28:05.436Z,12.88
2022-11-03T06:30:34.453Z,12.90
2022-11-03T06:33:10.667Z,12.90
2022-11-03T06:35:37.857Z,12.96
2022-11-03T06:38:10.316Z,12.99
2022-11-03T06:40:38.430Z,12.99
2022-11-03T06:43:18.340Z,12.92
2022-11-03T06:45:48.655Z,12.97
2022-11-03T06:48:20.736Z,12.98
2022-11-03T06:50:47.848Z,12.95
2022-11-03T06:53:19.390Z,12.94
2022-11-03T06:55:47.600Z,12.93
2022-11-03T06:58:35.023Z,12.96
2022-11-03T07:01:40.803Z,12.98
2022-11-03T07:04:28.617Z,13.00
2022-11-03T07:06:59.646Z,13.12
2022-11-03T07:09:27.027Z,13.13
2022-11-03T07:11:55.719Z,13.16
2022-11-03T07:14:24.909Z,13.15
2022-11-03T07:16:54.593Z,13.13
2022-11-03T07:19:29.904Z,13.22
2022-11-03T07:21:59.331Z,13.26
2022-11-03T07:24:52.682Z,13.31
2022-11-03T07:27:38.552Z,13.42
2022-11-03T07:30:22.132Z,13.44
2022-11-03T07:32:53.397Z,13.48
2022-11-03T07:36:08.621Z,13.47
2022-11-03T07:38:26.416Z,13.52
2022-11-03T07:40:55.911Z,13.53
2022-11-03T07:43:25.262Z,13.53
2022-11-03T07:45:53.213Z,13.59
2022-11-03T07:48:20.661Z,13.64
2022-11-03T07:50:48.415Z,13.69
2022-11-03T07:53:23.263Z,13.71
2022-11-03T07:55:54.827Z,13.72
2022-11-03T07:58:24.280Z,13.79
2022-11-03T08:00:57.493Z,13.77
2022-11-03T08:03:41.332Z,13.81
2022-11-03T08:06:10.024Z,13.84
2022-11-03T08:08:37.818Z,13.84
2022-11-03T08:11:05.381Z,13.88
2022-11-03T08:13:32.573Z,13.83
2022-11-03T08:15:59.806Z,13.86
2022-11-03T08:18:27.060Z,13.93
2022-11-03T08:20:54.267Z,13.91
2022-11-03T08:23:26.060Z,13.96
2022-11-03T08:25:53.599Z,13.99
2022-11-03T08:28:20.821Z,14.02
2022-11-03T08:30:47.952Z,14.03
2022-11-03T08:33:15.113Z,13.98
2022-11-03T08:35:42.376Z,13.96
2022-11-03T08:38:09.862Z,13.94
2022-11-03T08:40:37.200Z,13.97
2022-11-03T08:43:05.863Z,13.95
2022-11-03T08:45:32.983Z,13.97
2022-11-03T08:48:00.233Z,14.01
2022-11-03T08:50:27.408Z,14.11
2022-11-03T08:52:54.672Z,14.15
2022-11-03T08:55:21.892Z,14.19
2022-11-03T08:57:49.028Z,14.38
2022-11-03T09:00:19.094Z,14.50
2022-11-03T09:02:46.413Z,14.76
2022-11-03T09:05:14.721Z,14.94
2022-11-03T09:10:33.270Z,15.22
2022-11-03T09:13:02.618Z,15.27
2022-11-03T09:15:30.686Z,15.33
2022-11-03T09:17:57.792Z,15.32
2022-11-03T09:20:25.004Z,15.32
2022-11-03T09:22:52.619Z,15.48
2022-11-03T09:25:19.810Z,15.58
2022-11-03T09:27:47.083Z,15.59
2022-11-03T09:30:14.674Z,15.59
2022-11-03T09:32:42.221Z,15.58
2022-11-03T09:35:14.492Z,15.68
2022-11-03T09:37:41.707Z,15.76
2022-11-03T09:40:10.272Z,15.81
2022-11-03T09:42:38.815Z,15.94
2022-11-03T09:45:07.797Z,16.01
2022-11-03T09:47:43.828Z,16.15
2022-11-03T09:50:13.637Z,16.20
2022-11-03T09:52:40.921Z,16.30
2022-11-03T09:55:15.903Z,16.36
2022-11-03T09:57:43.424Z,16.35
2022-11-03T10:00:16.578Z,16.29
2022-11-03T10:02:44.001Z,16.26
2022-11-03T10:05:13.324Z,16.30
2022-11-03T10:07:42.526Z,16.29
2022-11-03T10:10:15.501Z,16.24
2022-11-03T10:12:43.110Z,16.28
2022-11-03T10:15:14.570Z,16.24
2022-11-03T10:17:42.643Z,16.27
2022-11-03T10:20:11.621Z,16.25
2022-11-03T10:22:41.159Z,16.25
2022-11-03T10:25:27.155Z,16.20
2022-11-03T10:28:14.525Z,16.21
2022-11-03T10:33:42.191Z,16.29
2022-11-03T10:36:15.724Z,16.30
2022-11-03T10:38:45.897Z,16.31
2022-11-03T10:41:16.112Z,16.30
2022-11-03T10:43:44.533Z,16.32
2022-11-03T10:46:48.566Z,16.35
2022-11-03T10:49:18.484Z,16.34
2022-11-03T10:51:57.429Z,16.41
2022-11-03T10:54:25.254Z,16.37
2022-11-03T10:56:52.721Z,16.35
2022-11-03T10:59:21.718Z,16.44
2022-11-03T11:01:49.059Z,16.52
2022-11-03T11:04:17.499Z,16.57
2022-11-03T11:06:46.172Z,16.58
2022-11-03T11:09:15.806Z,16.58
2022-11-03T11:12:01.719Z,16.58
2022-11-03T11:14:28.852Z,16.60
2022-11-03T11:16:59.190Z,16.66
2022-11-03T11:19:27.371Z,16.62
2022-11-03T11:21:54.598Z,16.62
2022-11-03T11:24:40.574Z,16.71
2022-11-03T11:27:43.021Z,16.79
2022-11-03T11:30:30.191Z,16.83
2022-11-03T11:33:12.362Z,16.88
2022-11-03T11:35:39.537Z,16.97
2022-11-03T11:38:25.260Z,16.84
2022-11-03T11:40:52.718Z,16.90
2022-11-03T11:43:19.811Z,16.87
2022-11-03T11:46:05.667Z,16.86
2022-11-03T11:48:33.130Z,16.87
2022-11-03T11:51:01.143Z,16.87
2022-11-03T11:53:32.036Z,16.86
2022-11-03T11:56:00.383Z,16.93
2022-11-03T11:58:30.455Z,16.97
2022-11-03T12:00:59.962Z,17.01
2022-11-03T12:03:32.364Z,17.03
2022-11-03T12:05:59.645Z,17.06
2022-11-03T12:08:31.035Z,17.06
2022-11-03T12:11:02.207Z,17.08
2022-11-03T12:13:47.539Z,17.10
2022-11-03T12:16:29.977Z,17.11
2022-11-03T12:18:59.885Z,17.08
2022-11-03T12:21:49.424Z,17.04
2022-11-03T12:24:32.116Z,17.02
2022-11-03T12:27:00.108Z,16.99
2022-11-03T12:29:27.395Z,16.97
2022-11-03T12:31:54.526Z,16.95
2022-11-03T12:34:21.917Z,16.93
2022-11-03T12:36:54.718Z,16.91
2022-11-03T12:39:22.988Z,16.87
2022-11-03T12:41:50.066Z,16.86
2022-11-03T12:44:17.266Z,16.82
2022-11-03T12:46:44.491Z,16.79
2022-11-03T12:49:11.587Z,16.78
2022-11-03T12:51:38.852Z,16.74
2022-11-03T12:54:06.062Z,16.76
2022-11-03T12:56:33.345Z,16.81
2022-11-03T12:59:00.431Z,16.77
2022-11-03T13:01:27.676Z,16.78
2022-11-03T13:03:55.044Z,16.76
2022-11-03T13:06:22.183Z,16.76
2022-11-03T13:08:53.111Z,16.74
2022-11-03T13:11:38.936Z,16.67
2022-11-03T13:14:06.195Z,16.65
2022-11-03T13:16:33.376Z,16.64
2022-11-03T13:19:00.502Z,16.64
2022-11-03T13:21:27.775Z,16.63
2022-11-03T13:23:56.363Z,16.58
2022-11-03T13:26:23.566Z,16.57
2022-11-03T13:28:50.751Z,16.49
2022-11-03T13:31:17.954Z,16.44
2022-11-03T13:33:45.325Z,16.40
2022-11-03T13:36:12.561Z,16.41
2022-11-03T13:38:40.043Z,16.45
2022-11-03T13:41:09.026Z,16.40
2022-11-03T13:43:38.327Z,16.35
2022-11-03T13:46:05.694Z,16.33
2022-11-03T13:51:21.559Z,16.39
2022-11-03T14:04:44.775Z,16.36
2022-11-03T14:07:13.045Z,16.35
2022-11-03T14:09:40.276Z,16.36
2022-11-03T14:12:25.854Z,16.37
2022-11-03T14:14:53.037Z,16.36
2022-11-03T14:17:20.222Z,16.38
2022-11-03T14:19:52.014Z,16.32
2022-11-03T14:22:20.746Z,16.26
2022-11-03T14:24:48.090Z,16.31
2022-11-03T14:27:16.018Z,16.26
2022-11-03T14:29:43.833Z,16.24
2022-11-03T14:32:12.920Z,16.24
2022-11-03T14:34:40.326Z,16.25
2022-11-03T14:37:08.949Z,16.25
2022-11-03T14:39:39.259Z,16.28
2022-11-03T14:42:09.098Z,16.31
2022-11-03T14:44:38.404Z,16.30
2022-11-03T14:47:06.980Z,16.24
2022-11-03T14:49:34.891Z,16.25
2022-11-03T14:52:02.741Z,16.24
2022-11-03T14:54:30.533Z,16.24
2022-11-03T14:56:57.898Z,16.24
2022-11-03T14:59:25.650Z,16.20
2022-11-03T15:01:53.619Z,16.21
2022-11-03T15:04:21.758Z,16.22
2022-11-03T15:06:49.759Z,16.22
2022-11-03T15:09:17.029Z,16.20
2022-11-03T15:11:44.578Z,16.14
2022-11-03T15:14:12.105Z,16.14
2022-11-03T15:16:39.849Z,16.09
2022-11-03T15:19:08.033Z,16.08
2022-11-03T15:21:35.575Z,16.02
2022-11-03T15:26:50.802Z,15.97
2022-11-03T15:29:18.060Z,15.94
2022-11-03T15:31:48.279Z,15.92
2022-11-03T15:34:16.040Z,15.88
2022-11-03T15:36:43.424Z,15.88
2022-11-03T15:39:10.560Z,15.84
2022-11-03T15:41:37.789Z,15.84
2022-11-03T15:44:04.964Z,15.81
2022-11-03T15:46:32.197Z,15.80
2022-11-03T15:49:00.620Z,15.80
2022-11-03T15:51:27.868Z,15.77
2022-11-03T15:53:58.498Z,15.77
2022-11-03T15:56:26.785Z,15.74
2022-11-03T15:58:54.249Z,15.71
2022-11-03T16:01:21.662Z,15.71
2022-11-03T16:03:49.102Z,15.71
2022-11-03T16:06:16.262Z,15.72
2022-11-03T16:08:43.769Z,15.65
2022-11-03T16:11:10.890Z,15.66
2022-11-03T16:13:38.059Z,15.64
2022-11-03T16:16:05.611Z,15.59
2022-11-03T16:18:32.818Z,15.57
2022-11-03T16:20:59.993Z,15.59
2022-11-03T16:23:27.099Z,15.58
2022-11-03T16:25:54.199Z,15.61
2022-11-03T16:28:21.409Z,15.58
2022-11-03T16:30:53.031Z,15.58
2022-11-03T16:33:22.044Z,15.55
2022-11-03T16:35:49.432Z,15.52
2022-11-03T16:38:16.777Z,15.52
2022-11-03T16:40:43.888Z,15.52
2022-11-03T16:43:11.489Z,15.52
2022-11-03T16:45:38.711Z,15.50
2022-11-03T16:48:07.065Z,15.54
2022-11-03T16:50:35.082Z,15.65
2022-11-03T16:53:02.926Z,15.66
2022-11-03T16:55:30.045Z,15.55
2022-11-03T16:57:57.162Z,15.57
2022-11-03T17:00:25.748Z,15.59
2022-11-03T17:02:52.991Z,15.61
2022-11-03T17:05:22.070Z,15.76
2022-11-03T17:07:53.635Z,15.72
2022-11-03T17:10:21.591Z,15.81
2022-11-03T17:12:49.093Z,15.70
2022-11-03T17:15:17.242Z,15.67
2022-11-03T17:17:44.441Z,15.64
2022-11-03T17:20:12.084Z,15.65
2022-11-03T17:22:39.655Z,15.62
2022-11-03T17:25:09.091Z,15.62
2022-11-03T17:27:44.979Z,15.62
2022-11-03T17:30:22.349Z,15.60
2022-11-03T17:32:50.853Z,15.60
2022-11-03T17:35:20.834Z,15.61
2022-11-03T17:37:48.545Z,15.66
2022-11-03T17:40:16.638Z,15.76
2022-11-03T17:42:44.249Z,15.79
2022-11-03T17:45:15.268Z,15.81
2022-11-03T17:47:42.941Z,15.70
2022-11-03T17:50:13.658Z,15.65
2022-11-03T17:52:41.170Z,15.64
2022-11-03T17:55:17.015Z,15.62
2022-11-03T17:57:45.126Z,15.61
2022-11-03T18:00:18.008Z,15.62
2022-11-03T18:02:45.314Z,15.60
2022-11-03T18:08:05.908Z,15.53
2022-11-03T18:10:34.376Z,15.50
2022-11-03T18:13:16.592Z,15.55
2022-11-03T18:15:54.664Z,15.55
2022-11-03T18:18:21.955Z,15.57
2022-11-03T18:20:53.317Z,15.58
2022-11-03T18:23:22.642Z,15.65
2022-11-03T18:25:50.161Z,15.68
2022-11-03T18:28:17.425Z,15.68
2022-11-03T18:30:45.842Z,15.65
2022-11-03T18:33:24.816Z,15.60
2022-11-03T18:35:53.243Z,15.53
2022-11-03T18:38:22.005Z,15.51
2022-11-03T18:40:49.304Z,15.51
2022-11-03T18:43:20.716Z,15.49
2022-11-03T18:45:48.032Z,15.46
2022-11-03T18:48:19.528Z,15.47
2022-11-03T18:50:50.778Z,15.45
2022-11-03T18:53:19.839Z,15.47
2022-11-03T18:55:46.991Z,15.43
2022-11-03T18:58:24.624Z,15.41
2022-11-03T19:00:52.703Z,15.41
2022-11-03T19:03:20.846Z,15.41
2022-11-03T19:05:49.149Z,15.37
2022-11-03T19:08:21.332Z,15.39
2022-11-03T19:10:48.859Z,15.42
2022-11-03T19:13:17.421Z,15.43
2022-11-03T19:15:44.623Z,15.48
2022-11-03T19:18:13.152Z,15.47
2022-11-03T19:20:40.252Z,15.44
2022-11-03T19:23:09.702Z,15.39
2022-11-03T19:25:38.307Z,15.34
2022-11-03T19:28:05.735Z,15.26
2022-11-03T19:30:32.982Z,15.24
2022-11-03T19:33:00.792Z,15.20
2022-11-03T19:35:34.879Z,15.21
2022-11-03T19:38:06.911Z,15.20
2022-11-03T19:40:34.319Z,15.18
2022-11-03T19:43:01.540Z,15.19
2022-11-03T19:45:29.150Z,15.16
2022-11-03T19:50:48.782Z,15.08
2022-11-03T19:53:24.230Z,15.03
2022-11-03T19:55:51.968Z,14.99
2022-11-03T19:58:20.490Z,14.92
2022-11-03T20:00:48.062Z,14.91
2022-11-03T20:03:15.627Z,14.92
2022-11-03T20:05:49.021Z,14.89
2022-11-03T20:08:19.017Z,14.86
2022-11-03T20:10:47.857Z,14.83
2022-11-03T20:13:16.826Z,14.86
2022-11-03T20:15:44.048Z,14.87
2022-11-03T20:18:14.514Z,14.88
2022-11-03T20:20:43.054Z,14.85
2022-11-03T20:23:22.463Z,14.78
2022-11-03T20:25:50.005Z,14.74
2022-11-03T20:28:19.219Z,14.75
2022-11-03T20:30:46.389Z,14.72
2022-11-03T20:33:15.608Z,14.71
2022-11-03T20:35:43.572Z,14.72
2022-11-03T20:38:14.462Z,14.74
2022-11-03T20:40:42.356Z,14.77
2022-11-03T20:43:23.732Z,14.77
2022-11-03T20:45:50.915Z,14.71
2022-11-03T20:48:18.332Z,14.65
2022-11-03T20:50:45.646Z,14.67
2022-11-03T20:53:17.177Z,14.65
2022-11-03T20:55:44.689Z,14.68
2022-11-03T20:58:13.009Z,14.63
2022-11-03T21:00:41.216Z,14.61
2022-11-03T21:03:31.326Z,14.62
2022-11-03T21:06:04.602Z,14.62
2022-11-03T21:08:31.751Z,14.62
2022-11-03T21:11:18.952Z,14.65
2022-11-03T21:13:46.086Z,14.65
2022-11-03T21:16:31.922Z,14.55
2022-11-03T21:19:17.557Z,14.58
2022-11-03T21:21:44.699Z,14.54
2022-11-03T21:24:12.373Z,14.56
2022-11-03T21:26:41.484Z,14.55
2022-11-03T21:29:08.811Z,14.54
2022-11-03T21:31:35.924Z,14.58
2022-11-03T21:34:03.080Z,14.64
2022-11-03T21:36:30.794Z,14.61
2022-11-03T21:38:58.008Z,14.71
2022-11-03T21:41:43.498Z,14.64
2022-11-03T21:44:16.788Z,14.65
2022-11-03T21:46:44.112Z,14.65
2022-11-03T21:49:29.924Z,14.63
2022-11-03T21:51:57.113Z,14.51
2022-11-03T21:54:24.305Z,14.39
2022-11-03T21:56:51.518Z,14.32
2022-11-03T21:59:18.754Z,14.30
2022-11-03T22:01:45.955Z,14.28
2022-11-03T22:04:13.254Z,14.29
2022-11-03T22:06:40.427Z,14.28
2022-11-03T22:09:07.916Z,14.25
2022-11-03T22:11:35.052Z,14.24
2022-11-03T22:14:02.349Z,14.24
2022-11-03T22:16:38.219Z,14.23
2022-11-03T22:19:25.389Z,14.21
2022-11-03T22:22:11.386Z,14.24
2022-11-03T22:24:57.729Z,14.22
2022-11-03T22:27:25.816Z,14.25
2022-11-03T22:30:11.694Z,14.26
2022-11-03T22:32:39.291Z,14.25
2022-11-03T22:35:26.099Z,14.26
2022-11-03T22:38:02.342Z,14.23
2022-11-03T22:40:48.107Z,14.25
2022-11-03T22:43:33.939Z,14.37
2022-11-03T22:46:01.167Z,14.39
2022-11-03T22:48:28.381Z,14.31
2022-11-03T22:51:05.898Z,14.26
2022-11-03T22:53:52.611Z,14.21
2022-11-03T22:56:20.269Z,14.15
2022-11-03T22:58:50.341Z,14.12
2022-11-03T23:01:18.819Z,14.14
2022-11-03T23:03:46.778Z,14.13
2022-11-03T23:06:16.256Z,14.13
2022-11-03T23:08:44.328Z,14.11
2022-11-03T23:11:19.034Z,14.12
2022-11-03T23:13:47.463Z,14.11
2022-11-03T23:16:16.144Z,14.09
2022-11-03T23:19:02.560Z,14.07
2022-11-03T23:21:29.918Z,14.02
2022-11-03T23:24:15.708Z,14.00
2022-11-03T23:26:43.300Z,13.97
2022-11-03T23:29:11.083Z,13.98
2022-11-03T23:31:39.075Z,13.95
2022-11-03T23:34:06.838Z,13.93
2022-11-03T23:36:34.035Z,13.92
2022-11-03T23:39:01.752Z,13.89
2022-11-03T23:41:29.675Z,13.88
2022-11-03T23:43:57.193Z,13.87
2022-11-03T23:46:46.619Z,13.87
2022-11-03T23:49:14.372Z,13.86
2022-11-03T23:51:42.812Z,13.85
2022-11-03T23:54:11.343Z,13.84
2022-11-03T23:56:58.994Z,13.85
2022-11-03T23:59:27.174Z,13.86
